createdAt,value
2019-04-10T00:00:55.118Z,21.03
2019-04-10T00:03:31.847Z,23.03
2019-04-10T00:05:52.742Z,23.57
2019-04-10T00:08:20.516Z,22.77
2019-04-10T00:10:48.251Z,21.10
2019-04-10T00:13:16.026Z,23.47
2019-04-10T00:15:43.778Z,20.93
2019-04-10T00:18:11.635Z,21.27
2019-04-10T00:20:39.430Z,20.70
2019-04-10T00:23:08.934Z,21.17
2019-04-10T00:25:37.076Z,23.80
2019-04-10T00:28:05.311Z,23.20
2019-04-10T00:30:33.349Z,21.33
2019-04-10T00:33:01.146Z,19.27
2019-04-10T00:35:29.738Z,20.57
2019-04-10T00:37:57.575Z,22.63
2019-04-10T00:40:25.627Z,19.80
2019-04-10T00:42:53.742Z,20.93
2019-04-10T00:45:21.718Z,20.77
2019-04-10T00:47:49.546Z,23.53
2019-04-10T00:50:18.182Z,19.80
2019-04-10T00:52:46.207Z,18.90
2019-04-10T00:55:13.997Z,19.47
2019-04-10T00:57:41.734Z,21.37
2019-04-10T01:00:09.801Z,20.50
2019-04-10T01:02:37.664Z,20.80
2019-04-10T01:05:05.601Z,20.10
2019-04-10T01:07:39.429Z,21.67
2019-04-10T01:10:04.358Z,21.63
2019-04-10T01:12:32.131Z,20.63
2019-04-10T01:15:00.261Z,19.47
2019-04-10T01:17:28.552Z,20.97
2019-04-10T01:19:56.551Z,18.73
2019-04-10T01:22:25.316Z,18.97
2019-04-10T01:24:54.338Z,20.27
2019-04-10T01:27:22.241Z,19.27
2019-04-10T01:29:50.003Z,21.73
2019-04-10T01:32:17.728Z,19.57
2019-04-10T01:34:45.549Z,19.07
2019-04-10T01:37:13.442Z,19.63
2019-04-10T01:39:42.262Z,19.80
2019-04-10T01:42:10.050Z,18.20
2019-04-10T01:44:38.568Z,20.23
2019-04-10T01:47:06.773Z,21.47
2019-04-10T01:49:34.638Z,21.70
2019-04-10T01:52:02.381Z,19.93
2019-04-10T01:54:31.120Z,20.23
2019-04-10T01:56:59.715Z,18.50
2019-04-10T01:59:29.902Z,20.87
2019-04-10T02:02:05.463Z,19.87
2019-04-10T02:04:33.204Z,20.47
2019-04-10T02:07:02.081Z,22.17
2019-04-10T02:09:29.866Z,21.93
2019-04-10T02:11:58.522Z,21.50
2019-04-10T02:14:26.352Z,21.73
2019-04-10T02:16:54.897Z,20.33
2019-04-10T02:19:23.852Z,20.90
2019-04-10T02:21:51.893Z,20.93
2019-04-10T02:24:19.634Z,19.33
2019-04-10T02:26:47.739Z,25.03
2019-04-10T02:29:15.607Z,21.63
2019-04-10T02:31:44.216Z,22.57
2019-04-10T02:34:12.900Z,23.80
2019-04-10T02:36:42.419Z,20.10
2019-04-10T02:39:20.640Z,21.60
2019-04-10T02:41:41.422Z,22.90
2019-04-10T02:44:10.237Z,24.90
2019-04-10T02:46:38.857Z,25.43
2019-04-10T02:49:08.117Z,23.43
2019-04-10T02:51:36.350Z,24.67
2019-04-10T02:54:05.099Z,24.17
2019-04-10T02:56:33.250Z,24.20
2019-04-10T02:59:02.683Z,23.03
2019-04-10T03:01:31.562Z,23.13
2019-04-10T03:03:59.458Z,23.90
2019-04-10T03:06:27.377Z,26.70
2019-04-10T03:09:13.820Z,22.77
2019-04-10T03:11:26.482Z,24.57
2019-04-10T03:13:55.597Z,23.43
2019-04-10T03:16:23.709Z,25.27
2019-04-10T03:18:51.507Z,24.43
2019-04-10T03:21:19.238Z,26.33
2019-04-10T03:23:47.567Z,23.83
2019-04-10T03:26:15.438Z,23.70
2019-04-10T03:28:43.206Z,24.50
2019-04-10T03:31:12.935Z,24.90
2019-04-10T03:34:00.993Z,23.47
2019-04-10T03:36:36.019Z,23.33
2019-04-10T03:39:07.947Z,23.53
2019-04-10T03:41:36.663Z,25.13
2019-04-10T03:44:04.592Z,25.17
2019-04-10T03:46:33.237Z,25.83
2019-04-10T03:49:01.239Z,26.43
2019-04-10T03:51:30.297Z,25.87
2019-04-10T03:53:58.462Z,27.60
2019-04-10T03:56:26.678Z,27.80
2019-04-10T03:58:54.412Z,27.67
2019-04-10T04:01:22.991Z,27.43
2019-04-10T04:03:51.153Z,25.17
2019-04-10T04:06:19.575Z,27.47
2019-04-10T04:08:47.957Z,26.47
2019-04-10T04:11:17.613Z,27.00
2019-04-10T04:13:45.905Z,26.60
2019-04-10T04:16:13.653Z,29.50
2019-04-10T04:18:41.553Z,28.47
2019-04-10T04:21:09.747Z,27.90
2019-04-10T04:23:38.284Z,28.07
2019-04-10T04:26:07.160Z,29.07
2019-04-10T04:28:34.981Z,28.37
2019-04-10T04:31:03.124Z,27.17
2019-04-10T04:33:31.906Z,25.53
2019-04-10T04:35:59.924Z,26.93
2019-04-10T04:38:27.742Z,27.07
2019-04-10T04:40:55.604Z,27.97
2019-04-10T04:43:23.429Z,28.30
2019-04-10T04:45:51.607Z,26.17
2019-04-10T04:48:19.569Z,27.30
2019-04-10T04:50:47.427Z,27.03
2019-04-10T04:53:16.236Z,28.27
2019-04-10T04:55:44.972Z,28.90
2019-04-10T04:58:13.768Z,28.10
2019-04-10T05:00:41.805Z,27.17
2019-04-10T05:03:10.012Z,27.63
2019-04-10T05:05:37.781Z,26.17
2019-04-10T05:08:06.861Z,26.57
2019-04-10T05:10:35.670Z,27.10
2019-04-10T05:13:04.051Z,26.97
2019-04-10T05:15:31.880Z,28.40
2019-04-10T05:17:59.764Z,25.87
2019-04-10T05:20:39.458Z,27.93
2019-04-10T05:22:57.629Z,25.30
2019-04-10T05:25:25.408Z,25.87
2019-04-10T05:27:53.272Z,30.70
2019-04-10T05:30:21.034Z,25.27
2019-04-10T05:32:49.367Z,27.67
2019-04-10T05:35:17.290Z,24.07
2019-04-10T05:37:45.698Z,26.43
2019-04-10T05:40:13.576Z,26.27
2019-04-10T05:42:41.606Z,23.80
2019-04-10T05:45:09.712Z,24.87
2019-04-10T05:47:38.459Z,22.93
2019-04-10T05:50:07.110Z,26.57
2019-04-10T05:52:35.334Z,25.53
2019-04-10T05:55:04.199Z,25.67
2019-04-10T05:57:32.885Z,22.80
2019-04-10T06:00:00.728Z,22.63
2019-04-10T06:02:28.495Z,25.97
2019-04-10T06:04:56.282Z,25.20
2019-04-10T06:07:24.027Z,23.43
2019-04-10T06:09:55.818Z,24.87
2019-04-10T06:12:22.351Z,24.03
2019-04-10T06:14:50.480Z,26.47
2019-04-10T06:17:18.455Z,21.40
2019-04-10T06:19:46.829Z,24.33
2019-04-10T06:22:14.712Z,23.30
2019-04-10T06:24:42.571Z,24.40
2019-04-10T06:27:10.417Z,25.10
2019-04-10T06:29:39.331Z,22.20
2019-04-10T06:32:07.397Z,23.13
2019-04-10T06:34:36.295Z,22.07
2019-04-10T06:37:04.228Z,22.00
2019-04-10T06:39:33.004Z,21.57
2019-04-10T06:42:00.905Z,23.20
2019-04-10T06:44:28.665Z,23.43
2019-04-10T06:46:57.044Z,20.93
2019-04-10T06:49:24.965Z,20.10
2019-04-10T06:51:53.527Z,20.70
2019-04-10T06:54:21.358Z,24.20
2019-04-10T06:56:50.282Z,20.00
2019-04-10T06:59:18.120Z,21.03
2019-04-10T07:01:51.214Z,20.60
2019-04-10T07:04:15.570Z,19.60
2019-04-10T07:06:52.824Z,17.17
2019-04-10T07:09:21.374Z,19.13
2019-04-10T07:11:53.442Z,19.13
2019-04-10T07:14:18.461Z,17.97
2019-04-10T07:16:46.507Z,20.40
2019-04-10T07:19:14.287Z,19.40
2019-04-10T07:21:42.691Z,19.40
2019-04-10T07:24:12.206Z,19.50
2019-04-10T07:26:43.728Z,17.50
2019-04-10T07:29:10.948Z,18.00
2019-04-10T07:31:39.766Z,17.77
2019-04-10T07:34:08.727Z,18.17
2019-04-10T07:36:41.636Z,17.00
2019-04-10T07:39:07.698Z,15.33
2019-04-10T07:41:35.584Z,19.70
2019-04-10T07:44:03.727Z,18.40
2019-04-10T07:46:32.575Z,15.63
2019-04-10T07:49:00.744Z,18.83
2019-04-10T07:51:29.730Z,16.77
2019-04-10T07:53:57.794Z,16.47
2019-04-10T07:56:26.665Z,13.83
2019-04-10T07:58:54.569Z,13.53
2019-04-10T08:01:22.332Z,12.50
2019-04-10T08:03:52.389Z,13.10
2019-04-10T08:06:20.006Z,11.90
2019-04-10T08:08:47.813Z,14.03
2019-04-10T08:11:15.552Z,11.90
2019-04-10T08:13:43.327Z,13.90
2019-04-10T08:16:11.257Z,11.38
2019-04-10T08:18:39.461Z,10.95
2019-04-10T08:21:08.272Z,11.68
2019-04-10T08:23:36.032Z,12.13
2019-04-10T08:26:03.874Z,24.07
2019-04-10T08:28:32.794Z,10.00
2019-04-10T08:31:01.008Z,10.48
2019-04-10T08:33:30.123Z,10.50
2019-04-10T08:35:58.935Z,13.98
2019-04-10T08:38:27.939Z,11.00
2019-04-10T08:40:56.607Z,10.80
2019-04-10T08:43:24.518Z,11.35
2019-04-10T08:45:53.677Z,9.68
2019-04-10T08:48:22.010Z,9.10
2019-04-10T08:50:50.373Z,8.43
2019-04-10T08:53:18.190Z,8.20
2019-04-10T08:55:46.231Z,8.50
2019-04-10T08:58:14.513Z,11.35
2019-04-10T09:00:42.846Z,8.78
2019-04-10T09:03:10.896Z,8.70
2019-04-10T09:05:38.797Z,7.60
2019-04-10T09:08:06.543Z,8.30
2019-04-10T09:10:34.868Z,7.45
2019-04-10T09:13:02.604Z,9.75
2019-04-10T09:15:30.352Z,7.67
2019-04-10T09:17:58.077Z,9.55
2019-04-10T09:20:26.785Z,7.45
2019-04-10T09:23:13.402Z,9.03
2019-04-10T09:25:24.924Z,9.50
2019-04-10T09:27:53.815Z,6.78
2019-04-10T09:30:21.688Z,7.50
2019-04-10T09:32:49.425Z,7.72
2019-04-10T09:35:18.293Z,7.05
2019-04-10T09:37:46.285Z,6.20
2019-04-10T09:40:14.415Z,8.78
2019-04-10T09:42:42.202Z,9.05
2019-04-10T09:45:10.056Z,9.75
2019-04-10T09:47:37.803Z,6.45
2019-04-10T09:50:07.707Z,22.80
2019-04-10T09:52:35.763Z,7.05
2019-04-10T09:55:05.126Z,7.10
2019-04-10T09:57:32.860Z,6.90
2019-04-10T10:00:00.989Z,9.03
2019-04-10T10:02:28.754Z,7.25
2019-04-10T10:04:56.499Z,6.72
2019-04-10T10:07:24.241Z,6.45
2019-04-10T10:09:52.034Z,7.60
2019-04-10T10:12:20.192Z,7.35
2019-04-10T10:14:48.388Z,6.85
2019-04-10T10:17:16.904Z,6.97
2019-04-10T10:19:45.998Z,6.80
2019-04-10T10:22:14.681Z,7.47
2019-04-10T10:24:42.667Z,6.95
2019-04-10T10:27:10.541Z,6.40
2019-04-10T10:29:38.342Z,7.78
2019-04-10T10:32:06.090Z,6.55
2019-04-10T10:34:34.573Z,6.80
2019-04-10T10:37:03.874Z,7.33
2019-04-10T10:39:31.756Z,7.03
2019-04-10T10:41:59.511Z,7.45
2019-04-10T10:44:27.272Z,7.00
2019-04-10T10:46:55.773Z,6.87
2019-04-10T10:49:24.355Z,10.13
2019-04-10T10:51:53.215Z,7.87
2019-04-10T10:54:21.247Z,8.25
2019-04-10T10:56:49.065Z,6.60
2019-04-10T10:59:17.577Z,6.70
2019-04-10T11:01:46.324Z,6.25
2019-04-10T11:04:15.036Z,7.05
2019-04-10T11:06:51.759Z,6.72
2019-04-10T11:09:15.632Z,6.92
2019-04-10T11:11:43.553Z,6.45
2019-04-10T11:14:11.416Z,6.78
2019-04-10T11:16:39.284Z,7.70
2019-04-10T11:19:07.169Z,6.58
2019-04-10T11:21:35.008Z,6.45
2019-04-10T11:24:03.141Z,6.58
2019-04-10T11:26:31.002Z,6.12
2019-04-10T11:28:59.148Z,6.35
2019-04-10T11:31:26.924Z,7.50
2019-04-10T11:33:56.405Z,7.92
2019-04-10T11:36:24.352Z,6.65
2019-04-10T11:38:55.328Z,6.47
2019-04-10T11:41:23.424Z,6.45
2019-04-10T11:43:52.669Z,7.15
2019-04-10T11:46:22.727Z,23.45
2019-04-10T11:48:51.919Z,6.05
2019-04-10T11:51:23.325Z,6.50
2019-04-10T11:53:54.390Z,6.78
2019-04-10T11:56:21.186Z,6.80
2019-04-10T12:01:21.610Z,6.97
2019-04-10T12:03:51.561Z,7.12
2019-04-10T12:06:20.682Z,6.50
2019-04-10T12:09:08.530Z,6.30
2019-04-10T12:11:19.932Z,6.12
2019-04-10T12:13:46.980Z,6.85
2019-04-10T12:16:14.836Z,6.67
2019-04-10T12:18:42.612Z,6.72
2019-04-10T12:21:10.464Z,6.10
2019-04-10T12:23:38.184Z,7.22
2019-04-10T12:26:05.935Z,7.25
2019-04-10T12:28:33.911Z,5.33
2019-04-10T12:31:01.823Z,6.20
2019-04-10T12:33:29.734Z,6.72
2019-04-10T12:35:58.208Z,6.35
2019-04-10T12:38:26.024Z,7.97
2019-04-10T12:40:53.739Z,5.72
2019-04-10T12:43:21.495Z,10.05
2019-04-10T12:45:49.269Z,10.10
2019-04-10T12:48:20.837Z,11.80
2019-04-10T12:50:49.513Z,6.78
2019-04-10T12:53:17.401Z,9.38
2019-04-10T12:55:45.868Z,7.72
2019-04-10T12:58:17.593Z,8.93
2019-04-10T13:00:44.596Z,6.58
2019-04-10T13:03:12.464Z,7.87
2019-04-10T13:05:41.132Z,6.83
2019-04-10T13:08:19.050Z,5.85
2019-04-10T13:10:39.808Z,5.90
2019-04-10T13:13:07.629Z,6.45
2019-04-10T13:15:35.406Z,6.87
2019-04-10T13:18:03.870Z,16.67
2019-04-10T13:20:31.707Z,6.72
2019-04-10T13:23:00.331Z,6.30
2019-04-10T13:25:28.209Z,6.12
2019-04-10T13:27:56.012Z,10.75
2019-04-10T13:30:24.929Z,8.15
2019-04-10T13:32:53.021Z,6.33
2019-04-10T13:35:21.941Z,8.08
2019-04-10T13:37:50.638Z,10.10
2019-04-10T13:40:19.443Z,9.25
2019-04-10T13:42:47.455Z,8.65
2019-04-10T13:45:17.425Z,6.42
2019-04-10T13:47:45.299Z,7.83
2019-04-10T13:50:13.200Z,6.20
2019-04-10T13:52:42.928Z,5.90
2019-04-10T13:55:11.697Z,8.03
2019-04-10T13:57:39.574Z,7.95
2019-04-10T14:00:13.200Z,7.40
2019-04-10T14:02:41.558Z,7.17
2019-04-10T14:05:11.733Z,6.50
2019-04-10T14:07:40.200Z,10.47
2019-04-10T14:10:08.418Z,6.83
2019-04-10T14:12:36.456Z,11.07
2019-04-10T14:15:05.042Z,5.70
2019-04-10T14:17:33.374Z,7.70
2019-04-10T14:20:01.143Z,7.23
2019-04-10T14:22:29.546Z,7.90
2019-04-10T14:24:57.423Z,7.85
2019-04-10T14:27:27.881Z,8.77
2019-04-10T14:29:56.656Z,7.50
2019-04-10T14:32:29.460Z,7.40
2019-04-10T14:34:57.241Z,9.47
2019-04-10T14:37:25.327Z,6.60
2019-04-10T14:39:53.211Z,5.97
2019-04-10T14:42:20.944Z,6.50
2019-04-10T14:44:48.756Z,6.37
2019-04-10T14:47:17.168Z,6.93
2019-04-10T14:49:45.188Z,5.80
2019-04-10T14:52:13.026Z,9.27
2019-04-10T14:54:40.796Z,5.97
2019-04-10T14:57:08.542Z,5.70
2019-04-10T14:59:36.275Z,5.43
2019-04-10T15:02:06.378Z,7.20
2019-04-10T15:04:35.222Z,6.27
2019-04-10T15:07:03.929Z,6.73
2019-04-10T15:09:32.501Z,5.53
2019-04-10T15:12:00.252Z,6.57
2019-04-10T15:14:28.040Z,5.00
2019-04-10T15:17:03.492Z,9.87
2019-04-10T15:19:26.737Z,5.87
2019-04-10T15:21:55.773Z,6.57
2019-04-10T15:24:23.812Z,5.37
2019-04-10T15:26:51.702Z,4.97
2019-04-10T15:29:21.196Z,5.77
2019-04-10T15:31:49.992Z,5.47
2019-04-10T15:34:18.314Z,5.63
2019-04-10T15:36:47.609Z,4.63
2019-04-10T15:39:16.819Z,5.43
2019-04-10T15:41:45.535Z,5.10
2019-04-10T15:44:14.079Z,5.50
2019-04-10T15:46:43.529Z,5.47
2019-04-10T15:49:11.395Z,5.80
2019-04-10T15:51:39.329Z,5.57
2019-04-10T15:54:07.702Z,6.30
2019-04-10T15:56:36.136Z,7.13
2019-04-10T15:59:04.049Z,6.07
2019-04-10T16:01:32.971Z,8.37
2019-04-10T16:04:01.155Z,5.67
2019-04-10T16:06:29.348Z,5.83
2019-04-10T16:08:57.175Z,5.87
2019-04-10T16:11:56.731Z,6.63
2019-04-10T16:14:28.404Z,5.13
2019-04-10T16:17:17.493Z,9.17
2019-04-10T16:20:03.971Z,6.50
2019-04-10T16:22:40.562Z,5.67
2019-04-10T16:25:22.710Z,7.27
2019-04-10T16:27:50.489Z,6.90
2019-04-10T16:30:22.020Z,6.77
2019-04-10T16:32:50.188Z,5.50
2019-04-10T16:35:19.050Z,6.90
2019-04-10T16:37:47.494Z,9.37
2019-04-10T16:40:15.325Z,9.27
2019-04-10T16:42:43.614Z,6.20
2019-04-10T16:45:13.473Z,6.07
2019-04-10T16:47:42.000Z,5.50
2019-04-10T16:50:11.200Z,5.67
2019-04-10T16:52:39.075Z,6.97
2019-04-10T16:55:08.410Z,6.10
2019-04-10T16:57:36.656Z,6.20
2019-04-10T17:00:06.919Z,5.53
2019-04-10T17:02:35.995Z,6.20
2019-04-10T17:05:05.981Z,5.83
2019-04-10T17:07:34.866Z,7.23
2019-04-10T17:10:13.090Z,5.73
2019-04-10T17:12:34.123Z,6.50
2019-04-10T17:15:02.088Z,6.13
2019-04-10T17:17:30.537Z,6.17
2019-04-10T17:19:59.498Z,9.33
2019-04-10T17:22:32.338Z,5.83
2019-04-10T17:24:57.880Z,5.47
2019-04-10T17:27:25.819Z,7.70
2019-04-10T17:29:55.239Z,5.87
2019-04-10T17:32:23.504Z,6.17
2019-04-10T17:34:51.518Z,6.03
2019-04-10T17:37:19.442Z,5.97
2019-04-10T17:39:47.378Z,6.20
2019-04-10T17:42:16.449Z,6.53
2019-04-10T17:44:45.576Z,9.37
2019-04-10T17:47:14.431Z,6.57
2019-04-10T17:49:43.400Z,7.73
2019-04-10T17:52:11.334Z,6.50
2019-04-10T17:54:39.189Z,8.23
2019-04-10T17:57:06.977Z,7.13
2019-04-10T17:59:34.955Z,7.03
2019-04-10T18:02:07.520Z,6.87
2019-04-10T18:04:35.369Z,7.53
2019-04-10T18:07:03.868Z,6.13
2019-04-10T18:09:32.741Z,6.30
2019-04-10T18:12:01.084Z,8.83
2019-04-10T18:14:29.140Z,6.30
2019-04-10T18:16:58.152Z,7.57
2019-04-10T18:19:26.034Z,7.40
2019-04-10T18:21:54.192Z,8.43
2019-04-10T18:24:22.156Z,6.50
2019-04-10T18:26:52.312Z,6.07
2019-04-10T18:29:19.664Z,7.97
2019-04-10T18:31:47.437Z,6.90
2019-04-10T18:34:15.506Z,8.13
2019-04-10T18:36:46.301Z,6.80
2019-04-10T18:39:18.303Z,7.93
2019-04-10T18:41:46.706Z,6.97
2019-04-10T18:44:15.050Z,6.73
2019-04-10T18:46:43.753Z,7.07
2019-04-10T18:49:11.565Z,6.50
2019-04-10T18:51:40.373Z,6.90
2019-04-10T18:54:10.811Z,6.83
2019-04-10T18:56:37.889Z,7.47
2019-04-10T18:59:12.390Z,7.60
2019-04-10T19:01:49.381Z,7.47
2019-04-10T19:04:39.225Z,6.63
2019-04-10T19:07:07.113Z,7.60
2019-04-10T19:09:36.864Z,7.10
2019-04-10T19:12:04.702Z,6.50
2019-04-10T19:14:36.205Z,6.53
2019-04-10T19:17:03.687Z,6.37
2019-04-10T19:19:32.389Z,7.70
2019-04-10T19:22:00.297Z,6.60
2019-04-10T19:24:30.219Z,8.00
2019-04-10T19:26:58.171Z,6.27
2019-04-10T19:29:25.931Z,6.23
2019-04-10T19:31:56.393Z,7.53
2019-04-10T19:34:25.322Z,6.80
2019-04-10T19:36:54.328Z,5.73
2019-04-10T19:39:22.367Z,10.33
2019-04-10T19:41:50.983Z,7.70
2019-04-10T19:44:19.077Z,5.67
2019-04-10T19:46:48.027Z,6.37
2019-04-10T19:49:16.369Z,6.90
2019-04-10T19:51:44.176Z,7.47
2019-04-10T19:54:11.987Z,5.83
2019-04-10T19:56:40.512Z,6.77
2019-04-10T19:59:08.451Z,8.63
2019-04-10T20:01:36.269Z,5.63
2019-04-10T20:04:04.069Z,6.03
2019-04-10T20:06:32.211Z,6.50
2019-04-10T20:09:00.157Z,7.77
2019-04-10T20:11:37.532Z,8.40
2019-04-10T20:13:59.999Z,7.67
2019-04-10T20:16:27.268Z,6.83
2019-04-10T20:18:55.029Z,5.27
2019-04-10T20:21:23.829Z,5.80
2019-04-10T20:23:52.333Z,7.13
2019-04-10T20:26:21.050Z,7.83
2019-04-10T20:28:49.750Z,6.30
2019-04-10T20:31:24.161Z,8.80
2019-04-10T20:33:51.937Z,5.80
2019-04-10T20:36:20.587Z,6.03
2019-04-10T20:38:48.471Z,5.97
2019-04-10T20:41:16.304Z,6.87
2019-04-10T20:43:44.848Z,6.10
2019-04-10T20:46:13.767Z,7.30
2019-04-10T20:48:41.629Z,5.87
2019-04-10T20:51:10.292Z,6.17
2019-04-10T20:53:38.074Z,7.43
2019-04-10T20:56:06.250Z,6.13
2019-04-10T20:58:34.101Z,8.20
2019-04-10T21:01:01.876Z,5.87
2019-04-10T21:03:31.766Z,6.93
2019-04-10T21:06:00.456Z,8.17
2019-04-10T21:08:28.217Z,6.53
2019-04-10T21:10:56.964Z,7.33
2019-04-10T21:13:25.380Z,6.50
2019-04-10T21:15:53.301Z,6.87
2019-04-10T21:18:22.152Z,7.50
2019-04-10T21:20:50.011Z,7.57
2019-04-10T21:23:17.811Z,7.27
2019-04-10T21:25:45.658Z,9.13
2019-04-10T21:28:14.131Z,5.97
2019-04-10T21:30:53.110Z,5.93
2019-04-10T21:33:26.655Z,6.53
2019-04-10T21:35:54.435Z,6.27
2019-04-10T21:38:22.171Z,5.73
2019-04-10T21:40:49.890Z,5.67
2019-04-10T21:43:18.554Z,7.93
2019-04-10T21:45:47.569Z,6.53
2019-04-10T21:48:15.383Z,6.23
2019-04-10T21:50:43.946Z,7.17
2019-04-10T21:53:12.227Z,6.23
2019-04-10T21:55:40.021Z,6.20
2019-04-10T21:58:08.177Z,7.30
2019-04-10T22:00:54.015Z,7.07
2019-04-10T22:03:22.305Z,7.67
2019-04-10T22:05:55.342Z,8.03
2019-04-10T22:08:33.648Z,7.60
2019-04-10T22:11:01.445Z,5.57
2019-04-10T22:13:30.185Z,7.27
2019-04-10T22:15:59.572Z,6.70
2019-04-10T22:18:27.561Z,5.93
2019-04-10T22:20:57.078Z,6.83
2019-04-10T22:23:24.967Z,6.60
2019-04-10T22:25:52.817Z,7.27
2019-04-10T22:28:21.124Z,6.20
2019-04-10T22:30:50.593Z,8.80
2019-04-10T22:33:18.537Z,6.57
2019-04-10T22:35:46.357Z,7.23
2019-04-10T22:38:15.179Z,7.83
2019-04-10T22:40:44.155Z,7.20
2019-04-10T22:43:11.983Z,6.77
2019-04-10T22:45:40.179Z,6.13
2019-04-10T22:48:08.348Z,6.00
2019-04-10T22:50:36.524Z,7.50
2019-04-10T22:53:04.716Z,6.17
2019-04-10T22:55:33.729Z,6.90
2019-04-10T22:58:02.527Z,7.67
2019-04-10T23:00:30.851Z,6.83
2019-04-10T23:02:58.855Z,6.03
2019-04-10T23:05:28.701Z,6.50
2019-04-10T23:07:56.978Z,7.40
2019-04-10T23:10:24.906Z,6.00
2019-04-10T23:12:59.985Z,7.40
2019-04-10T23:15:23.114Z,7.30
2019-04-10T23:17:50.987Z,8.53
2019-04-10T23:20:18.721Z,8.10
2019-04-10T23:22:48.518Z,8.33
2019-04-10T23:25:16.185Z,7.07
2019-04-10T23:27:44.100Z,9.97
2019-04-10T23:30:15.592Z,6.90
2019-04-10T23:32:43.610Z,6.50
2019-04-10T23:35:11.608Z,6.30
2019-04-10T23:37:39.470Z,6.80
2019-04-10T23:40:08.363Z,7.43
2019-04-10T23:42:36.243Z,7.10
2019-04-10T23:45:05.158Z,6.47
2019-04-10T23:47:34.023Z,8.87
2019-04-10T23:50:01.991Z,7.03
2019-04-10T23:52:29.792Z,8.20
2019-04-10T23:54:57.622Z,7.13
2019-04-10T23:57:25.451Z,7.97
2019-04-10T23:59:53.199Z,7.80
